sensor_id;sensor_type;location;lat;lon;timestamp;noise_LAeq;noise_LA_min;noise_LA_max;noise_LA01;noise_LA95
37833;Laerm;23678;48.778;9.160;2022-07-06T00:12:52;36.63;28.67;39.58;;
37833;Laerm;23678;48.778;9.160;2022-07-06T00:15:18;36.55;29.92;39.92;;
37833;Laerm;23678;48.778;9.160;2022-07-06T00:17:43;36.62;30.89;40.23;;
37833;Laerm;23678;48.778;9.160;2022-07-06T00:20:09;36.66;29.92;40.03;;
37833;Laerm;23678;48.778;9.160;2022-07-06T00:22:34;36.59;26.91;42.22;;
37833;Laerm;23678;48.778;9.160;2022-07-06T00:24:59;36.59;26.91;39.58;;
37833;Laerm;23678;48.778;9.160;2022-07-06T00:27:25;36.65;28.67;39.70;;
37833;Laerm;23678;48.778;9.160;2022-07-06T00:29:50;36.65;28.67;40.23;;
37833;Laerm;23678;48.778;9.160;2022-07-06T00:32:15;36.66;29.92;39.70;;
37833;Laerm;23678;48.778;9.160;2022-07-06T00:34:41;36.59;29.92;39.81;;
37833;Laerm;23678;48.778;9.160;2022-07-06T00:37:06;36.58;26.91;39.70;;
37833;Laerm;23678;48.778;9.160;2022-07-06T00:39:41;37.83;29.92;44.43;;
37833;Laerm;23678;48.778;9.160;2022-07-06T00:42:06;36.69;30.89;40.23;;
37833;Laerm;23678;48.778;9.160;2022-07-06T00:44:32;36.78;28.32;40.62;;
37833;Laerm;23678;48.778;9.160;2022-07-06T00:46:58;36.54;30.89;39.81;;
37833;Laerm;23678;48.778;9.160;2022-07-06T00:49:24;36.56;26.91;39.46;;
37833;Laerm;23678;48.778;9.160;2022-07-06T00:52:08;36.62;28.67;39.70;;
37833;Laerm;23678;48.778;9.160;2022-07-06T00:54:49;36.57;29.92;39.70;;
37833;Laerm;23678;48.778;9.160;2022-07-06T00:57:15;36.64;28.67;40.13;;
37833;Laerm;23678;48.778;9.160;2022-07-06T00:59:40;36.73;28.67;39.81;;
37833;Laerm;23678;48.778;9.160;2022-07-06T01:02:06;36.58;28.67;39.58;;
37833;Laerm;23678;48.778;9.160;2022-07-06T01:04:31;37.61;30.89;49.85;;
37833;Laerm;23678;48.778;9.160;2022-07-06T01:06:57;36.68;28.67;39.81;;
37833;Laerm;23678;48.778;9.160;2022-07-06T01:09:23;36.63;28.67;39.70;;
37833;Laerm;23678;48.778;9.160;2022-07-06T01:11:48;36.67;26.91;39.58;;
37833;Laerm;23678;48.778;9.160;2022-07-06T01:14:14;37.68;30.89;41.06;;
37833;Laerm;23678;48.778;9.160;2022-07-06T01:16:39;37.11;30.89;40.98;;
37833;Laerm;23678;48.778;9.160;2022-07-06T01:19:04;36.70;28.67;44.31;;
37833;Laerm;23678;48.778;9.160;2022-07-06T01:21:30;36.60;26.91;39.34;;
37833;Laerm;23678;48.778;9.160;2022-07-06T01:26:45;36.68;23.90;39.81;;
37833;Laerm;23678;48.778;9.160;2022-07-06T01:29:11;36.77;30.89;40.13;;
37833;Laerm;23678;48.778;9.160;2022-07-06T01:31:44;36.68;28.32;39.46;;
37833;Laerm;23678;48.778;9.160;2022-07-06T01:34:10;38.28;28.67;45.80;;
37833;Laerm;23678;48.778;9.160;2022-07-06T01:36:36;37.29;28.67;41.46;;
37833;Laerm;23678;48.778;9.160;2022-07-06T01:39:01;36.73;29.92;39.81;;
37833;Laerm;23678;48.778;9.160;2022-07-06T01:41:27;36.75;30.89;39.81;;
37833;Laerm;23678;48.778;9.160;2022-07-06T01:43:52;37.76;31.68;41.82;;
37833;Laerm;23678;48.778;9.160;2022-07-06T01:46:17;36.94;29.92;41.53;;
37833;Laerm;23678;48.778;9.160;2022-07-06T01:48:44;36.81;29.57;39.70;;
37833;Laerm;23678;48.778;9.160;2022-07-06T01:51:10;39.98;29.92;56.70;;
37833;Laerm;23678;48.778;9.160;2022-07-06T01:53:37;36.76;29.92;40.13;;
37833;Laerm;23678;48.778;9.160;2022-07-06T01:56:02;36.81;28.67;39.89;;
37833;Laerm;23678;48.778;9.160;2022-07-06T01:58:27;36.66;28.67;40.53;;
37833;Laerm;23678;48.778;9.160;2022-07-06T02:00:53;36.77;26.91;39.70;;
37833;Laerm;23678;48.778;9.160;2022-07-06T02:03:18;36.77;30.89;40.03;;
37833;Laerm;23678;48.778;9.160;2022-07-06T02:05:43;36.77;29.57;39.92;;
37833;Laerm;23678;48.778;9.160;2022-07-06T02:08:09;36.72;26.91;39.81;;
37833;Laerm;23678;48.778;9.160;2022-07-06T02:10:34;36.89;29.92;40.13;;
37833;Laerm;23678;48.778;9.160;2022-07-06T02:12:59;36.84;28.67;39.92;;
37833;Laerm;23678;48.778;9.160;2022-07-06T02:15:25;36.98;30.89;40.13;;
37833;Laerm;23678;48.778;9.160;2022-07-06T02:17:50;36.93;28.67;40.33;;
37833;Laerm;23678;48.778;9.160;2022-07-06T02:20:15;36.69;26.91;39.81;;
37833;Laerm;23678;48.778;9.160;2022-07-06T02:22:41;36.73;23.90;39.70;;
37833;Laerm;23678;48.778;9.160;2022-07-06T02:25:06;36.76;30.89;39.58;;
37833;Laerm;23678;48.778;9.160;2022-07-06T02:27:32;37.64;30.54;43.72;;
37833;Laerm;23678;48.778;9.160;2022-07-06T02:29:57;36.80;31.68;40.62;;
37833;Laerm;23678;48.778;9.160;2022-07-06T02:32:22;37.09;31.68;40.23;;
37833;Laerm;23678;48.778;9.160;2022-07-06T02:34:48;36.81;28.32;39.46;;
37833;Laerm;23678;48.778;9.160;2022-07-06T02:37:13;36.87;28.67;39.81;;
37833;Laerm;23678;48.778;9.160;2022-07-06T02:39:39;37.28;29.92;46.13;;
37833;Laerm;23678;48.778;9.160;2022-07-06T02:42:04;37.91;30.89;45.69;;
37833;Laerm;23678;48.778;9.160;2022-07-06T02:44:30;39.05;30.54;53.29;;
37833;Laerm;23678;48.778;9.160;2022-07-06T02:46:55;40.29;29.92;54.91;;
37833;Laerm;23678;48.778;9.160;2022-07-06T02:49:20;41.19;31.68;54.48;;
37833;Laerm;23678;48.778;9.160;2022-07-06T02:51:46;41.32;28.67;53.85;;
37833;Laerm;23678;48.778;9.160;2022-07-06T02:54:11;38.90;31.68;53.26;;
37833;Laerm;23678;48.778;9.160;2022-07-06T02:56:36;37.41;30.89;41.82;;
37833;Laerm;23678;48.778;9.160;2022-07-06T02:59:02;36.88;29.92;40.03;;
37833;Laerm;23678;48.778;9.160;2022-07-06T03:01:27;36.89;29.92;39.81;;
37833;Laerm;23678;48.778;9.160;2022-07-06T03:03:52;36.89;31.68;40.23;;
37833;Laerm;23678;48.778;9.160;2022-07-06T03:06:18;37.57;31.68;41.38;;
37833;Laerm;23678;48.778;9.160;2022-07-06T03:08:43;38.73;31.68;49.64;;
37833;Laerm;23678;48.778;9.160;2022-07-06T03:11:08;37.04;31.68;40.43;;
37833;Laerm;23678;48.778;9.160;2022-07-06T03:13:34;38.65;30.89;48.51;;
37833;Laerm;23678;48.778;9.160;2022-07-06T03:16:00;37.85;29.92;42.03;;
37833;Laerm;23678;48.778;9.160;2022-07-06T03:18:25;37.64;31.68;48.95;;
37833;Laerm;23678;48.778;9.160;2022-07-06T03:20:51;37.04;30.89;41.06;;
37833;Laerm;23678;48.778;9.160;2022-07-06T03:23:31;37.34;31.68;40.80;;
37833;Laerm;23678;48.778;9.160;2022-07-06T03:26:34;37.60;29.92;44.72;;
37833;Laerm;23678;48.778;9.160;2022-07-06T03:29:00;37.11;29.92;40.80;;
37833;Laerm;23678;48.778;9.160;2022-07-06T03:31:25;37.55;31.68;42.82;;
37833;Laerm;23678;48.778;9.160;2022-07-06T03:33:51;37.58;30.89;42.65;;
37833;Laerm;23678;48.778;9.160;2022-07-06T03:36:16;37.10;28.67;40.03;;
37833;Laerm;23678;48.778;9.160;2022-07-06T03:38:41;37.47;29.92;41.96;;
37833;Laerm;23678;48.778;9.160;2022-07-06T03:41:07;37.23;30.89;40.43;;
37833;Laerm;23678;48.778;9.160;2022-07-06T03:43:32;37.05;30.89;40.71;;
37833;Laerm;23678;48.778;9.160;2022-07-06T03:45:57;37.25;30.89;42.71;;
37833;Laerm;23678;48.778;9.160;2022-07-06T03:48:24;37.31;31.68;43.58;;
37833;Laerm;23678;48.778;9.160;2022-07-06T03:50:49;38.83;30.89;45.23;;
37833;Laerm;23678;48.778;9.160;2022-07-06T03:53:15;38.24;30.89;48.46;;
37833;Laerm;23678;48.778;9.160;2022-07-06T03:55:40;37.11;30.54;41.53;;
37833;Laerm;23678;48.778;9.160;2022-07-06T03:58:05;37.40;31.68;40.53;;
37833;Laerm;23678;48.778;9.160;2022-07-06T04:00:31;39.32;30.89;52.70;;
37833;Laerm;23678;48.778;9.160;2022-07-06T04:02:56;39.42;30.89;51.97;;
37833;Laerm;23678;48.778;9.160;2022-07-06T04:05:21;37.15;30.89;40.43;;
37833;Laerm;23678;48.778;9.160;2022-07-06T04:07:48;37.38;30.89;45.20;;
37833;Laerm;23678;48.778;9.160;2022-07-06T04:10:13;38.11;31.68;43.94;;
37833;Laerm;23678;48.778;9.160;2022-07-06T04:12:39;37.33;32.35;41.14;;
37833;Laerm;23678;48.778;9.160;2022-07-06T04:15:05;38.06;31.68;48.18;;
37833;Laerm;23678;48.778;9.160;2022-07-06T04:17:30;37.38;32.35;42.03;;
37833;Laerm;23678;48.778;9.160;2022-07-06T04:20:14;38.20;32.35;44.79;;
37833;Laerm;23678;48.778;9.160;2022-07-06T04:22:39;38.64;26.91;47.63;;
37833;Laerm;23678;48.778;9.160;2022-07-06T04:25:05;37.28;31.68;40.80;;
37833;Laerm;23678;48.778;9.160;2022-07-06T04:27:30;39.46;31.68;60.25;;
37833;Laerm;23678;48.778;9.160;2022-07-06T04:29:56;38.84;31.68;57.72;;
37833;Laerm;23678;48.778;9.160;2022-07-06T04:32:33;37.50;31.68;46.23;;
37833;Laerm;23678;48.778;9.160;2022-07-06T04:34:59;40.75;32.93;44.69;;
37833;Laerm;23678;48.778;9.160;2022-07-06T04:37:24;38.06;32.35;42.22;;
37833;Laerm;23678;48.778;9.160;2022-07-06T04:39:55;39.01;32.35;46.45;;
37833;Laerm;23678;48.778;9.160;2022-07-06T04:42:20;40.83;32.35;46.59;;
37833;Laerm;23678;48.778;9.160;2022-07-06T04:44:46;37.47;31.68;46.38;;
37833;Laerm;23678;48.778;9.160;2022-07-06T04:47:11;37.98;31.68;45.14;;
37833;Laerm;23678;48.778;9.160;2022-07-06T04:49:37;39.59;31.68;47.08;;
37833;Laerm;23678;48.778;9.160;2022-07-06T04:52:02;38.70;32.93;43.24;;
37833;Laerm;23678;48.778;9.160;2022-07-06T04:54:28;39.74;32.93;45.59;;
37833;Laerm;23678;48.778;9.160;2022-07-06T04:56:53;40.82;32.35;55.58;;
37833;Laerm;23678;48.778;9.160;2022-07-06T04:59:19;40.42;33.90;51.98;;
37833;Laerm;23678;48.778;9.160;2022-07-06T05:01:44;39.62;32.35;48.32;;
37833;Laerm;23678;48.778;9.160;2022-07-06T05:04:09;40.33;34.69;49.57;;
37833;Laerm;23678;48.778;9.160;2022-07-06T05:06:35;40.19;33.90;59.61;;
37833;Laerm;23678;48.778;9.160;2022-07-06T05:09:00;43.79;34.69;59.55;;
37833;Laerm;23678;48.778;9.160;2022-07-06T05:11:26;40.44;35.04;58.48;;
37833;Laerm;23678;48.778;9.160;2022-07-06T05:13:52;39.47;33.44;45.04;;
37833;Laerm;23678;48.778;9.160;2022-07-06T05:16:21;40.75;34.31;54.01;;
37833;Laerm;23678;48.778;9.160;2022-07-06T05:18:47;41.42;33.44;56.34;;
37833;Laerm;23678;48.778;9.160;2022-07-06T05:21:13;39.46;33.90;58.11;;
37833;Laerm;23678;48.778;9.160;2022-07-06T05:23:38;39.91;33.90;57.12;;
37833;Laerm;23678;48.778;9.160;2022-07-06T05:26:04;39.80;33.44;48.18;;
37833;Laerm;23678;48.778;9.160;2022-07-06T05:28:29;40.72;34.31;58.31;;
37833;Laerm;23678;48.778;9.160;2022-07-06T05:30:54;39.69;34.31;44.58;;
37833;Laerm;23678;48.778;9.160;2022-07-06T05:33:20;39.13;33.44;45.36;;
37833;Laerm;23678;48.778;9.160;2022-07-06T05:35:45;38.66;32.93;48.39;;
37833;Laerm;23678;48.778;9.160;2022-07-06T05:38:11;39.85;33.44;47.72;;
37833;Laerm;23678;48.778;9.160;2022-07-06T05:40:36;40.61;34.69;50.03;;
37833;Laerm;23678;48.778;9.160;2022-07-06T05:43:01;40.70;33.90;48.51;;
37833;Laerm;23678;48.778;9.160;2022-07-06T05:45:27;41.33;33.90;52.49;;
37833;Laerm;23678;48.778;9.160;2022-07-06T05:47:52;39.84;34.31;54.48;;
37833;Laerm;23678;48.778;9.160;2022-07-06T05:50:36;41.59;34.69;55.03;;
37833;Laerm;23678;48.778;9.160;2022-07-06T05:53:02;40.99;35.36;56.63;;
37833;Laerm;23678;48.778;9.160;2022-07-06T05:55:28;42.08;34.31;53.69;;
37833;Laerm;23678;48.778;9.160;2022-07-06T05:57:54;41.69;35.36;55.09;;
37833;Laerm;23678;48.778;9.160;2022-07-06T06:00:21;41.15;34.69;50.42;;
37833;Laerm;23678;48.778;9.160;2022-07-06T06:02:46;42.73;31.68;53.07;;
37833;Laerm;23678;48.778;9.160;2022-07-06T06:05:12;55.79;37.52;64.86;;
37833;Laerm;23678;48.778;9.160;2022-07-06T06:07:38;47.16;35.36;65.06;;
37833;Laerm;23678;48.778;9.160;2022-07-06T06:10:04;41.09;34.69;56.60;;
37833;Laerm;23678;48.778;9.160;2022-07-06T06:12:30;43.48;35.66;58.27;;
37833;Laerm;23678;48.778;9.160;2022-07-06T06:14:56;40.07;33.90;49.16;;
37833;Laerm;23678;48.778;9.160;2022-07-06T06:17:21;40.40;32.93;48.23;;
37833;Laerm;23678;48.778;9.160;2022-07-06T06:19:47;41.79;33.90;53.33;;
37833;Laerm;23678;48.778;9.160;2022-07-06T06:22:13;41.23;34.31;53.39;;
37833;Laerm;23678;48.778;9.160;2022-07-06T06:24:38;39.26;32.93;47.61;;
37833;Laerm;23678;48.778;9.160;2022-07-06T06:27:03;43.62;34.69;60.59;;
37833;Laerm;23678;48.778;9.160;2022-07-06T06:29:29;41.74;36.20;47.42;;
37833;Laerm;23678;48.778;9.160;2022-07-06T06:31:54;44.28;35.36;69.27;;
37833;Laerm;23678;48.778;9.160;2022-07-06T06:34:20;42.48;35.94;58.06;;
37833;Laerm;23678;48.778;9.160;2022-07-06T06:36:45;42.19;34.31;58.12;;
37833;Laerm;23678;48.778;9.160;2022-07-06T06:39:10;42.23;34.69;53.58;;
37833;Laerm;23678;48.778;9.160;2022-07-06T06:41:37;41.32;34.31;52.04;;
37833;Laerm;23678;48.778;9.160;2022-07-06T06:44:02;40.55;35.36;53.33;;
37833;Laerm;23678;48.778;9.160;2022-07-06T06:46:28;40.26;33.90;57.81;;
37833;Laerm;23678;48.778;9.160;2022-07-06T06:48:53;39.80;33.44;47.74;;
37833;Laerm;23678;48.778;9.160;2022-07-06T06:51:19;40.73;32.35;50.62;;
37833;Laerm;23678;48.778;9.160;2022-07-06T06:53:46;41.23;33.44;48.31;;
37833;Laerm;23678;48.778;9.160;2022-07-06T06:56:11;50.57;34.69;68.66;;
37833;Laerm;23678;48.778;9.160;2022-07-06T06:58:42;50.16;35.66;68.63;;
37833;Laerm;23678;48.778;9.160;2022-07-06T07:01:08;39.37;33.44;45.80;;
37833;Laerm;23678;48.778;9.160;2022-07-06T07:03:34;40.51;33.97;51.14;;
37833;Laerm;23678;48.778;9.160;2022-07-06T07:06:00;41.35;34.69;59.26;;
37833;Laerm;23678;48.778;9.160;2022-07-06T07:08:25;41.17;32.93;63.18;;
37833;Laerm;23678;48.778;9.160;2022-07-06T07:10:51;39.84;33.44;51.73;;
37833;Laerm;23678;48.778;9.160;2022-07-06T07:13:16;39.47;32.93;45.07;;
37833;Laerm;23678;48.778;9.160;2022-07-06T07:15:42;40.24;33.44;50.61;;
37833;Laerm;23678;48.778;9.160;2022-07-06T07:18:08;39.77;32.93;49.29;;
37833;Laerm;23678;48.778;9.160;2022-07-06T07:20:34;39.41;32.35;47.00;;
37833;Laerm;23678;48.778;9.160;2022-07-06T07:22:59;41.68;32.93;63.18;;
37833;Laerm;23678;48.778;9.160;2022-07-06T07:25:25;40.21;33.90;52.91;;
37833;Laerm;23678;48.778;9.160;2022-07-06T07:27:51;39.29;33.44;52.31;;
37833;Laerm;23678;48.778;9.160;2022-07-06T07:30:16;39.16;31.68;47.26;;
37833;Laerm;23678;48.778;9.160;2022-07-06T07:32:41;39.69;32.35;50.29;;
37833;Laerm;23678;48.778;9.160;2022-07-06T07:35:07;40.29;33.90;50.81;;
37833;Laerm;23678;48.778;9.160;2022-07-06T07:37:33;39.60;33.44;52.11;;
37833;Laerm;23678;48.778;9.160;2022-07-06T07:39:58;40.08;34.31;52.43;;
37833;Laerm;23678;48.778;9.160;2022-07-06T07:42:23;42.47;33.90;57.17;;
37833;Laerm;23678;48.778;9.160;2022-07-06T07:44:49;41.94;32.93;67.53;;
37833;Laerm;23678;48.778;9.160;2022-07-06T07:47:14;40.05;33.90;56.96;;
37833;Laerm;23678;48.778;9.160;2022-07-06T07:49:42;41.08;36.45;51.42;;
37833;Laerm;23678;48.778;9.160;2022-07-06T07:52:10;43.30;38.05;58.35;;
37833;Laerm;23678;48.778;9.160;2022-07-06T07:54:36;42.64;36.91;65.06;;
37833;Laerm;23678;48.778;9.160;2022-07-06T07:57:03;41.52;36.45;50.34;;
37833;Laerm;23678;48.778;9.160;2022-07-06T07:59:28;41.20;37.12;54.40;;
37833;Laerm;23678;48.778;9.160;2022-07-06T08:01:53;41.21;37.12;50.78;;
37833;Laerm;23678;48.778;9.160;2022-07-06T08:04:19;41.77;37.52;51.48;;
37833;Laerm;23678;48.778;9.160;2022-07-06T08:06:44;41.99;37.52;49.59;;
37833;Laerm;23678;48.778;9.160;2022-07-06T08:09:10;41.74;36.69;49.81;;
37833;Laerm;23678;48.778;9.160;2022-07-06T08:11:35;42.11;35.04;60.33;;
37833;Laerm;23678;48.778;9.160;2022-07-06T08:14:01;40.91;34.69;52.64;;
37833;Laerm;23678;48.778;9.160;2022-07-06T08:16:27;39.61;34.31;55.74;;
37833;Laerm;23678;48.778;9.160;2022-07-06T08:18:52;43.97;35.04;55.53;;
37833;Laerm;23678;48.778;9.160;2022-07-06T08:21:18;42.35;35.36;50.00;;
37833;Laerm;23678;48.778;9.160;2022-07-06T08:23:43;42.61;35.04;56.67;;
37833;Laerm;23678;48.778;9.160;2022-07-06T08:26:09;39.94;34.69;53.01;;
37833;Laerm;23678;48.778;9.160;2022-07-06T08:28:34;39.89;34.69;51.68;;
37833;Laerm;23678;48.778;9.160;2022-07-06T08:30:59;41.84;33.44;54.19;;
37833;Laerm;23678;48.778;9.160;2022-07-06T08:33:25;45.03;35.04;60.33;;
37833;Laerm;23678;48.778;9.160;2022-07-06T08:35:50;42.10;34.69;59.64;;
37833;Laerm;23678;48.778;9.160;2022-07-06T08:38:16;42.97;35.04;50.37;;
37833;Laerm;23678;48.778;9.160;2022-07-06T08:40:41;43.85;34.69;59.40;;
37833;Laerm;23678;48.778;9.160;2022-07-06T08:43:08;41.62;33.90;57.51;;
37833;Laerm;23678;48.778;9.160;2022-07-06T08:45:34;40.96;34.69;54.92;;
37833;Laerm;23678;48.778;9.160;2022-07-06T08:48:04;42.60;34.69;56.12;;
37833;Laerm;23678;48.778;9.160;2022-07-06T08:50:30;41.88;34.69;56.84;;
37833;Laerm;23678;48.778;9.160;2022-07-06T08:52:57;41.04;35.04;57.50;;
37833;Laerm;23678;48.778;9.160;2022-07-06T08:55:22;44.22;37.12;55.38;;
37833;Laerm;23678;48.778;9.160;2022-07-06T08:57:48;44.47;36.69;55.88;;
37833;Laerm;23678;48.778;9.160;2022-07-06T09:00:14;43.28;35.66;53.20;;
37833;Laerm;23678;48.778;9.160;2022-07-06T09:02:40;39.87;35.04;55.07;;
37833;Laerm;23678;48.778;9.160;2022-07-06T09:05:06;39.90;34.31;52.94;;
37833;Laerm;23678;48.778;9.160;2022-07-06T09:07:31;43.66;35.66;60.08;;
37833;Laerm;23678;48.778;9.160;2022-07-06T09:09:57;43.30;35.94;50.39;;
37833;Laerm;23678;48.778;9.160;2022-07-06T09:12:26;43.49;35.36;52.04;;
37833;Laerm;23678;48.778;9.160;2022-07-06T09:14:54;42.67;36.45;57.06;;
37833;Laerm;23678;48.778;9.160;2022-07-06T09:17:19;40.31;35.04;50.34;;
37833;Laerm;23678;48.778;9.160;2022-07-06T09:19:45;40.88;35.66;52.22;;
37833;Laerm;23678;48.778;9.160;2022-07-06T09:22:11;39.93;35.36;52.94;;
37833;Laerm;23678;48.778;9.160;2022-07-06T09:24:49;40.31;34.69;50.37;;
37833;Laerm;23678;48.778;9.160;2022-07-06T09:27:15;39.68;34.31;57.81;;
37833;Laerm;23678;48.778;9.160;2022-07-06T09:29:51;39.69;34.69;51.31;;
37833;Laerm;23678;48.778;9.160;2022-07-06T09:32:19;39.75;34.31;57.51;;
37833;Laerm;23678;48.778;9.160;2022-07-06T09:34:45;39.65;34.69;52.53;;
37833;Laerm;23678;48.778;9.160;2022-07-06T09:37:11;41.86;33.44;56.68;;
37833;Laerm;23678;48.778;9.160;2022-07-06T09:39:37;39.41;33.90;47.84;;
37833;Laerm;23678;48.778;9.160;2022-07-06T09:42:03;40.44;32.93;54.15;;
37833;Laerm;23678;48.778;9.160;2022-07-06T09:44:30;40.32;35.36;53.71;;
37833;Laerm;23678;48.778;9.160;2022-07-06T09:46:57;39.89;35.04;56.96;;
37833;Laerm;23678;48.778;9.160;2022-07-06T09:49:23;39.02;32.93;51.48;;
37833;Laerm;23678;48.778;9.160;2022-07-06T09:51:50;40.34;34.31;56.95;;
37833;Laerm;23678;48.778;9.160;2022-07-06T09:54:16;38.98;32.93;44.43;;
37833;Laerm;23678;48.778;9.160;2022-07-06T09:56:43;41.94;34.69;53.81;;
37833;Laerm;23678;48.778;9.160;2022-07-06T09:59:09;42.07;36.10;51.08;;
37833;Laerm;23678;48.778;9.160;2022-07-06T10:01:38;43.27;36.91;58.44;;
37833;Laerm;23678;48.778;9.160;2022-07-06T10:04:11;45.28;39.08;52.29;;
37833;Laerm;23678;48.778;9.160;2022-07-06T10:06:40;42.01;34.69;52.19;;
37833;Laerm;23678;48.778;9.160;2022-07-06T10:09:06;45.32;35.36;64.56;;
37833;Laerm;23678;48.778;9.160;2022-07-06T10:11:33;40.20;33.09;46.69;;
37833;Laerm;23678;48.778;9.160;2022-07-06T10:13:59;39.76;35.36;45.27;;
37833;Laerm;23678;48.778;9.160;2022-07-06T10:16:26;40.78;34.31;48.71;;
37833;Laerm;23678;48.778;9.160;2022-07-06T10:18:53;41.19;34.69;48.88;;
37833;Laerm;23678;48.778;9.160;2022-07-06T10:21:20;42.27;35.36;50.31;;
37833;Laerm;23678;48.778;9.160;2022-07-06T10:23:47;40.82;35.04;52.51;;
37833;Laerm;23678;48.778;9.160;2022-07-06T10:26:13;40.10;34.69;53.34;;
37833;Laerm;23678;48.778;9.160;2022-07-06T10:28:39;40.12;35.36;48.10;;
37833;Laerm;23678;48.778;9.160;2022-07-06T10:31:06;39.09;35.36;48.90;;
37833;Laerm;23678;48.778;9.160;2022-07-06T10:33:32;39.75;34.69;49.89;;
37833;Laerm;23678;48.778;9.160;2022-07-06T10:35:58;39.52;34.31;45.63;;
37833;Laerm;23678;48.778;9.160;2022-07-06T10:38:31;39.87;35.04;44.39;;
37833;Laerm;23678;48.778;9.160;2022-07-06T10:41:06;39.67;34.69;47.06;;
37833;Laerm;23678;48.778;9.160;2022-07-06T10:43:36;38.72;30.89;52.19;;
37833;Laerm;23678;48.778;9.160;2022-07-06T10:46:06;39.59;32.93;56.28;;
37833;Laerm;23678;48.778;9.160;2022-07-06T10:48:35;40.12;32.93;51.35;;
37833;Laerm;23678;48.778;9.160;2022-07-06T10:51:02;39.41;34.69;53.95;;
37833;Laerm;23678;48.778;9.160;2022-07-06T10:53:39;41.34;34.69;56.12;;
37833;Laerm;23678;48.778;9.160;2022-07-06T10:56:17;40.22;33.90;50.63;;
37833;Laerm;23678;48.778;9.160;2022-07-06T11:01:12;40.04;32.35;49.41;;
37833;Laerm;23678;48.778;9.160;2022-07-06T11:03:42;40.14;34.31;57.65;;
37833;Laerm;23678;48.778;9.160;2022-07-06T11:06:08;40.05;31.68;53.44;;
37833;Laerm;23678;48.778;9.160;2022-07-06T11:11:16;41.84;33.55;60.65;;
37833;Laerm;23678;48.778;9.160;2022-07-06T11:14:05;41.87;34.31;52.64;;
37833;Laerm;23678;48.778;9.160;2022-07-06T11:16:29;45.62;36.91;67.67;;
37833;Laerm;23678;48.778;9.160;2022-07-06T11:19:08;42.26;35.04;54.69;;
37833;Laerm;23678;48.778;9.160;2022-07-06T11:24:00;42.34;32.93;63.15;;
37833;Laerm;23678;48.778;9.160;2022-07-06T11:26:26;43.50;37.12;58.22;;
37833;Laerm;23678;48.778;9.160;2022-07-06T11:28:52;41.82;33.44;60.57;;
37833;Laerm;23678;48.778;9.160;2022-07-06T11:31:18;39.49;33.90;54.65;;
37833;Laerm;23678;48.778;9.160;2022-07-06T11:33:47;39.44;33.90;59.04;;
37833;Laerm;23678;48.778;9.160;2022-07-06T11:36:13;40.46;35.94;59.99;;
37833;Laerm;23678;48.778;9.160;2022-07-06T11:38:38;45.65;38.05;59.67;;
37833;Laerm;23678;48.778;9.160;2022-07-06T11:41:04;42.68;35.66;55.24;;
37833;Laerm;23678;48.778;9.160;2022-07-06T11:43:29;42.64;35.04;55.18;;
37833;Laerm;23678;48.778;9.160;2022-07-06T11:45:55;42.89;38.37;57.77;;
37833;Laerm;23678;48.778;9.160;2022-07-06T11:48:20;42.31;34.69;56.11;;
37833;Laerm;23678;48.778;9.160;2022-07-06T11:51:01;43.42;33.90;59.17;;
37833;Laerm;23678;48.778;9.160;2022-07-06T11:53:27;39.51;34.69;56.55;;
37833;Laerm;23678;48.778;9.160;2022-07-06T11:55:53;43.35;35.04;66.72;;
37833;Laerm;23678;48.778;9.160;2022-07-06T11:58:22;41.21;33.90;50.23;;
37833;Laerm;23678;48.778;9.160;2022-07-06T12:01:04;40.78;34.31;54.22;;
37833;Laerm;23678;48.778;9.160;2022-07-06T12:03:29;40.84;34.69;63.10;;
37833;Laerm;23678;48.778;9.160;2022-07-06T12:05:55;41.06;35.04;60.02;;
37833;Laerm;23678;48.778;9.160;2022-07-06T12:08:20;42.10;34.69;64.48;;
37833;Laerm;23678;48.778;9.160;2022-07-06T12:10:45;41.19;35.66;48.12;;
37833;Laerm;23678;48.778;9.160;2022-07-06T12:13:11;41.67;34.31;69.46;;
37833;Laerm;23678;48.778;9.160;2022-07-06T12:15:36;40.42;34.31;57.60;;
37833;Laerm;23678;48.778;9.160;2022-07-06T12:18:02;41.05;35.66;55.39;;
37833;Laerm;23678;48.778;9.160;2022-07-06T12:20:27;39.93;35.04;59.21;;
37833;Laerm;23678;48.778;9.160;2022-07-06T12:23:02;40.65;35.04;53.55;;
37833;Laerm;23678;48.778;9.160;2022-07-06T12:25:31;40.29;34.31;56.30;;
37833;Laerm;23678;48.778;9.160;2022-07-06T12:27:57;39.41;33.44;50.56;;
37833;Laerm;23678;48.778;9.160;2022-07-06T12:30:22;42.42;33.90;60.48;;
37833;Laerm;23678;48.778;9.160;2022-07-06T12:33:10;41.23;34.69;60.15;;
37833;Laerm;23678;48.778;9.160;2022-07-06T12:35:33;41.15;33.44;59.49;;
37833;Laerm;23678;48.778;9.160;2022-07-06T12:37:59;40.66;34.69;53.31;;
37833;Laerm;23678;48.778;9.160;2022-07-06T12:40:26;43.11;34.69;56.53;;
37833;Laerm;23678;48.778;9.160;2022-07-06T12:42:52;39.27;33.90;54.31;;
37833;Laerm;23678;48.778;9.160;2022-07-06T12:45:18;41.63;34.69;62.48;;
37833;Laerm;23678;48.778;9.160;2022-07-06T12:47:58;44.33;33.90;59.81;;
37833;Laerm;23678;48.778;9.160;2022-07-06T12:50:34;42.55;34.31;53.27;;
37833;Laerm;23678;48.778;9.160;2022-07-06T12:52:59;42.74;34.69;56.83;;
37833;Laerm;23678;48.778;9.160;2022-07-06T12:55:26;42.09;34.31;50.36;;
37833;Laerm;23678;48.778;9.160;2022-07-06T12:57:52;39.67;34.69;46.28;;
37833;Laerm;23678;48.778;9.160;2022-07-06T13:00:17;39.27;33.44;43.77;;
37833;Laerm;23678;48.778;9.160;2022-07-06T13:02:44;39.35;34.31;52.19;;
37833;Laerm;23678;48.778;9.160;2022-07-06T13:05:10;43.50;37.32;54.07;;
37833;Laerm;23678;48.778;9.160;2022-07-06T13:07:37;42.31;36.20;51.70;;
37833;Laerm;23678;48.778;9.160;2022-07-06T13:10:04;40.86;35.94;48.42;;
37833;Laerm;23678;48.778;9.160;2022-07-06T13:12:30;42.69;34.69;50.26;;
37833;Laerm;23678;48.778;9.160;2022-07-06T13:14:55;42.70;34.31;58.46;;
37833;Laerm;23678;48.778;9.160;2022-07-06T13:17:21;40.26;35.36;50.12;;
37833;Laerm;23678;48.778;9.160;2022-07-06T13:19:46;39.90;34.69;47.65;;
37833;Laerm;23678;48.778;9.160;2022-07-06T13:22:11;39.49;34.31;60.31;;
37833;Laerm;23678;48.778;9.160;2022-07-06T13:24:37;42.19;36.20;54.81;;
37833;Laerm;23678;48.778;9.160;2022-07-06T13:27:03;39.61;34.31;49.69;;
37833;Laerm;23678;48.778;9.160;2022-07-06T13:29:38;39.90;35.36;54.02;;
37833;Laerm;23678;48.778;9.160;2022-07-06T13:32:40;40.42;35.36;49.59;;
37833;Laerm;23678;48.778;9.160;2022-07-06T13:35:05;39.97;35.66;50.37;;
37833;Laerm;23678;48.778;9.160;2022-07-06T13:37:31;40.79;35.04;47.77;;
37833;Laerm;23678;48.778;9.160;2022-07-06T13:39:58;40.84;34.31;50.08;;
37833;Laerm;23678;48.778;9.160;2022-07-06T13:42:23;41.88;33.90;50.44;;
37833;Laerm;23678;48.778;9.160;2022-07-06T13:44:49;43.44;36.69;51.35;;
37833;Laerm;23678;48.778;9.160;2022-07-06T13:47:14;40.60;34.31;51.61;;
37833;Laerm;23678;48.778;9.160;2022-07-06T13:49:39;40.75;33.90;57.20;;
37833;Laerm;23678;48.778;9.160;2022-07-06T13:52:05;41.61;35.66;45.99;;
37833;Laerm;23678;48.778;9.160;2022-07-06T13:54:31;39.93;32.58;44.19;;
37833;Laerm;23678;48.778;9.160;2022-07-06T13:56:57;40.31;32.35;50.53;;
37833;Laerm;23678;48.778;9.160;2022-07-06T13:59:22;42.47;33.55;67.80;;
37833;Laerm;23678;48.778;9.160;2022-07-06T14:01:48;39.27;33.90;43.99;;
37833;Laerm;23678;48.778;9.160;2022-07-06T14:04:13;39.94;33.44;51.72;;